Time;durP1;ratioP1;P1;durP2;ratioP2;P2;SDS_P1;SDS_P2;PMS_P1;PMS_P2;Temp;Humidity;BMP_temperature;BMP_pressure;BME280_temperature;BME280_humidity;BME280_pressure;Samples;Min_cycle;Max_cycle;Signal;HPM_P1;HPM_P2
2022/09/28 00:01:47;;;;;;;;;;;10.20;95.00;;;;;;5080638;28;19935;-77
2022/09/28 00:04:14;;;;;;;;;;;10.30;95.40;;;;;;5072857;28;19936;-77
2022/09/28 00:06:41;;;;;;;;;;;10.20;95.50;;;;;;5074094;28;19939;-78
2022/09/28 00:09:07;;;;;;;;;;;10.20;95.70;;;;;;5074142;28;19932;-77
2022/09/28 00:11:36;;;;;;;;;;;10.30;95.80;;;;;;5073582;28;19958;-78
2022/09/28 00:14:03;;;;;;;;;;;10.30;95.90;;;;;;5067784;28;19932;-77
2022/09/28 00:16:30;;;;;;;;;;;10.30;95.90;;;;;;5077038;28;19939;-79
2022/09/28 00:18:57;;;;;;;;;;;10.20;95.90;;;;;;5079590;28;20015;-78
2022/09/28 00:21:24;;;;;;;;;;;10.30;96.20;;;;;;5077679;28;19974;-78
2022/09/28 00:26:37;;;;;;;;;;;10.30;96.40;;;;;;5076993;28;19938;-78
2022/09/28 00:29:04;;;;;;;;;;;10.20;96.50;;;;;;5075257;28;19973;-77
2022/09/28 00:31:32;;;;;;;;;;;10.20;96.70;;;;;;5074886;28;19928;-79
2022/09/28 00:33:59;;;;;;;;;;;10.30;97.00;;;;;;5078104;28;20048;-78
2022/09/28 00:36:27;;;;;;;;;;;10.20;97.00;;;;;;5076720;28;19941;-79
2022/09/28 00:38:54;;;;;;;;;;;10.20;97.10;;;;;;5079914;28;20014;-80
2022/09/28 00:41:20;;;;;;;;;;;10.20;97.20;;;;;;5082759;28;19970;-77
2022/09/28 00:43:48;;;;;;;;;;;10.20;97.40;;;;;;5076969;28;19939;-78
2022/09/28 00:46:16;;;;;;;;;;;10.20;97.70;;;;;;5080881;28;19932;-77
2022/09/28 00:48:47;;;;;;;;;;;10.20;97.90;;;;;;5078814;28;19927;-79
2022/09/28 00:51:13;;;;;;;;;;;10.20;98.30;;;;;;5084249;28;19935;-79
2022/09/28 00:53:43;;;;;;;;;;;10.20;98.50;;;;;;5084980;28;20388;-78
2022/09/28 00:56:10;;;;;;;;;;;10.20;98.80;;;;;;5078461;28;19928;-79
2022/09/28 00:58:40;;;;;;;;;;;10.20;98.80;;;;;;5079885;28;19932;-78
2022/09/28 01:01:08;;;;;;;;;;;10.20;98.80;;;;;;5084498;28;20347;-79
2022/09/28 01:03:34;;;;;;;;;;;10.20;98.80;;;;;;5085005;28;20010;-79
2022/09/28 01:06:02;;;;;;;;;;;10.10;98.80;;;;;;5083950;28;19957;-78
2022/09/28 01:08:29;;;;;;;;;;;10.20;99.10;;;;;;5084282;28;19928;-79
2022/09/28 01:10:57;;;;;;;;;;;10.20;99.40;;;;;;5084325;28;20785;-77
2022/09/28 01:13:24;;;;;;;;;;;10.10;99.70;;;;;;5083778;28;19928;-78
2022/09/28 01:15:55;;;;;;;;;;;10.10;99.50;;;;;;5085917;28;19928;-79
2022/09/28 01:18:26;;;;;;;;;;;10.10;99.50;;;;;;5086380;28;20392;-79
2022/09/28 01:20:59;;;;;;;;;;;10.20;99.50;;;;;;5085040;28;19928;-79
2022/09/28 01:23:45;;;;;;;;;;;10.20;99.50;;;;;;5082395;28;19931;-78
2022/09/28 01:26:25;;;;;;;;;;;10.10;99.50;;;;;;5085585;28;19935;-79
2022/09/28 01:28:54;;;;;;;;;;;10.10;99.50;;;;;;5082213;28;19997;-77
2022/09/28 01:31:24;;;;;;;;;;;10.20;99.70;;;;;;5086028;28;20763;-79
2022/09/28 01:33:54;;;;;;;;;;;10.20;99.80;;;;;;5087027;28;19932;-78
2022/09/28 01:36:22;;;;;;;;;;;10.20;99.90;;;;;;5084200;28;20644;-78
2022/09/28 01:38:50;;;;;;;;;;;10.20;99.90;;;;;;5083847;28;19928;-77
2022/09/28 01:41:18;;;;;;;;;;;10.10;99.90;;;;;;5081654;28;19932;-79
2022/09/28 01:43:48;;;;;;;;;;;10.20;99.90;;;;;;5076615;28;20517;-78
2022/09/28 01:46:17;;;;;;;;;;;10.20;99.90;;;;;;5078202;28;19924;-79
2022/09/28 01:48:46;;;;;;;;;;;10.20;99.90;;;;;;5075409;28;19927;-79
2022/09/28 01:51:16;;;;;;;;;;;10.20;99.90;;;;;;5078268;28;19928;-78
2022/09/28 01:53:46;;;;;;;;;;;10.20;99.90;;;;;;5081973;28;19928;-78
2022/09/28 01:56:15;;;;;;;;;;;10.20;99.90;;;;;;5075508;28;20339;-77
2022/09/28 01:58:45;;;;;;;;;;;10.20;99.90;;;;;;5076341;28;19928;-77
2022/09/28 02:01:17;;;;;;;;;;;10.30;99.90;;;;;;5075988;28;19928;-78
2022/09/28 02:03:46;;;;;;;;;;;10.30;99.90;;;;;;5074229;28;19932;-78
2022/09/28 02:06:14;;;;;;;;;;;10.30;99.90;;;;;;5079308;28;19928;-78
2022/09/28 02:08:47;;;;;;;;;;;10.30;99.90;;;;;;5077772;28;19985;-79
2022/09/28 02:11:14;;;;;;;;;;;10.30;99.90;;;;;;5081483;28;19940;-79
2022/09/28 02:13:42;;;;;;;;;;;10.30;99.90;;;;;;5078843;28;19928;-79
2022/09/28 02:16:13;;;;;;;;;;;10.30;99.90;;;;;;5077187;28;19943;-78
2022/09/28 02:18:41;;;;;;;;;;;10.40;99.90;;;;;;5081467;28;19928;-77
2022/09/28 02:21:10;;;;;;;;;;;10.30;99.90;;;;;;5078945;28;19936;-79
2022/09/28 02:23:39;;;;;;;;;;;10.40;99.90;;;;;;5077971;28;19935;-78
2022/09/28 02:26:08;;;;;;;;;;;10.40;99.90;;;;;;5077600;28;19936;-78
2022/09/28 02:28:35;;;;;;;;;;;10.40;99.90;;;;;;5076073;28;19928;-77
2022/09/28 02:31:01;;;;;;;;;;;10.30;99.90;;;;;;5073836;28;19927;-77
2022/09/28 02:33:30;;;;;;;;;;;10.40;99.90;;;;;;5078023;28;19932;-78
2022/09/28 02:35:59;;;;;;;;;;;10.40;99.90;;;;;;5083988;28;20015;-78
2022/09/28 02:38:26;;;;;;;;;;;10.40;99.90;;;;;;5083675;28;19935;-78
2022/09/28 02:40:57;;;;;;;;;;;10.40;99.90;;;;;;5084948;28;20335;-78
2022/09/28 02:43:24;;;;;;;;;;;10.40;99.90;;;;;;5083183;28;19962;-79
2022/09/28 02:45:56;;;;;;;;;;;10.40;99.90;;;;;;5075864;28;19935;-77
2022/09/28 02:48:38;;;;;;;;;;;10.40;99.90;;;;;;5080444;28;20031;-77
2022/09/28 02:51:09;;;;;;;;;;;10.40;99.90;;;;;;5080215;28;19928;-77
2022/09/28 02:53:54;;;;;;;;;;;10.40;99.90;;;;;;5077675;28;19935;-78
2022/09/28 02:56:24;;;;;;;;;;;10.40;99.90;;;;;;5075708;28;19932;-79
2022/09/28 02:58:54;;;;;;;;;;;10.40;99.90;;;;;;5075305;28;20801;-77
2022/09/28 03:01:26;;;;;;;;;;;10.40;99.90;;;;;;5081790;28;20030;-79
2022/09/28 03:03:55;;;;;;;;;;;10.30;99.90;;;;;;5080925;28;19928;-78
2022/09/28 03:06:26;;;;;;;;;;;10.40;99.90;;;;;;5078954;28;19981;-78
2022/09/28 03:08:57;;;;;;;;;;;10.40;99.90;;;;;;5080825;28;19936;-80
2022/09/28 03:11:26;;;;;;;;;;;10.30;99.90;;;;;;5076282;28;19929;-78
2022/09/28 03:13:53;;;;;;;;;;;10.30;99.90;;;;;;5082475;28;19943;-79
2022/09/28 03:16:20;;;;;;;;;;;10.30;99.90;;;;;;5083687;28;19932;-77
2022/09/28 03:18:47;;;;;;;;;;;10.30;99.90;;;;;;5080388;28;19928;-79
2022/09/28 03:21:15;;;;;;;;;;;10.30;99.90;;;;;;5075715;28;19978;-79
2022/09/28 03:23:43;;;;;;;;;;;10.30;99.90;;;;;;5077007;28;19932;-79
2022/09/28 03:26:10;;;;;;;;;;;10.30;99.90;;;;;;5078566;28;19943;-79
2022/09/28 03:28:37;;;;;;;;;;;10.30;99.90;;;;;;5081906;28;19959;-78
2022/09/28 03:31:03;;;;;;;;;;;10.20;99.90;;;;;;5082184;28;19989;-80
2022/09/28 03:33:30;;;;;;;;;;;10.30;99.90;;;;;;5080975;28;20524;-78
2022/09/28 03:35:56;;;;;;;;;;;10.30;99.90;;;;;;5072257;28;19940;-77
2022/09/28 03:38:23;;;;;;;;;;;10.30;99.90;;;;;;5080480;28;19974;-78
2022/09/28 03:40:55;;;;;;;;;;;10.30;99.90;;;;;;5079238;28;19932;-78
2022/09/28 03:43:21;;;;;;;;;;;10.30;99.90;;;;;;5081273;28;20430;-79
2022/09/28 03:45:51;;;;;;;;;;;10.30;99.90;;;;;;5068266;28;20402;-77
2022/09/28 03:48:20;;;;;;;;;;;10.30;99.90;;;;;;5082163;28;20019;-77
2022/09/28 03:50:47;;;;;;;;;;;10.20;99.90;;;;;;5072040;28;19928;-78
2022/09/28 03:53:13;;;;;;;;;;;10.20;99.90;;;;;;5075965;28;20324;-78
2022/09/28 03:55:40;;;;;;;;;;;10.20;99.90;;;;;;5074675;28;20741;-78
2022/09/28 03:58:07;;;;;;;;;;;10.20;99.90;;;;;;5077991;28;19927;-78
2022/09/28 04:00:34;;;;;;;;;;;10.20;99.90;;;;;;5080349;28;19939;-79
2022/09/28 04:03:01;;;;;;;;;;;10.20;99.90;;;;;;5079009;28;19939;-78
2022/09/28 04:05:27;;;;;;;;;;;10.20;99.90;;;;;;5078826;28;19929;-79
2022/09/28 04:07:54;;;;;;;;;;;10.20;99.90;;;;;;5080538;28;19932;-80
2022/09/28 04:10:21;;;;;;;;;;;10.20;99.90;;;;;;5076136;28;20432;-78
2022/09/28 04:12:48;;;;;;;;;;;10.20;99.90;;;;;;5082549;28;19935;-80
2022/09/28 04:15:17;;;;;;;;;;;10.20;99.90;;;;;;5079889;28;20003;-80
2022/09/28 04:17:43;;;;;;;;;;;10.20;99.90;;;;;;5081254;28;19928;-78
2022/09/28 04:20:10;;;;;;;;;;;10.20;99.90;;;;;;5079810;28;20050;-79
2022/09/28 04:22:37;;;;;;;;;;;10.10;99.90;;;;;;5083154;28;19939;-78
2022/09/28 04:25:03;;;;;;;;;;;10.20;99.90;;;;;;5078915;28;20022;-77
2022/09/28 04:30:14;;;;;;;;;;;10.10;99.90;;;;;;5081885;28;20017;-77
2022/09/28 04:32:42;;;;;;;;;;;10.10;99.90;;;;;;5077390;28;19951;-77
2022/09/28 04:35:09;;;;;;;;;;;10.10;99.90;;;;;;5077910;28;19929;-78
2022/09/28 04:37:36;;;;;;;;;;;10.10;99.90;;;;;;5073843;28;20003;-79
2022/09/28 04:40:02;;;;;;;;;;;10.10;99.90;;;;;;5077482;28;19935;-79
2022/09/28 04:42:29;;;;;;;;;;;10.10;99.90;;;;;;5081031;28;20404;-78
2022/09/28 04:44:57;;;;;;;;;;;10.10;99.90;;;;;;5077413;28;19942;-80
2022/09/28 04:47:24;;;;;;;;;;;10.10;99.90;;;;;;5078233;28;19932;-79
2022/09/28 04:49:52;;;;;;;;;;;10.00;99.90;;;;;;5072244;28;19928;-80
2022/09/28 04:52:19;;;;;;;;;;;10.00;99.90;;;;;;5072140;28;19928;-79
2022/09/28 04:54:45;;;;;;;;;;;10.00;99.90;;;;;;5077096;28;20058;-81
2022/09/28 04:57:12;;;;;;;;;;;10.00;99.90;;;;;;5075042;28;19931;-80
2022/09/28 04:59:38;;;;;;;;;;;10.00;99.90;;;;;;5077827;28;19931;-81
2022/09/28 05:02:05;;;;;;;;;;;10.00;99.90;;;;;;5081786;28;19928;-80
2022/09/28 05:04:32;;;;;;;;;;;10.00;99.90;;;;;;5083623;28;19932;-79
2022/09/28 05:06:59;;;;;;;;;;;10.00;99.90;;;;;;5082315;28;19928;-82
2022/09/28 05:09:26;;;;;;;;;;;10.00;99.90;;;;;;5081101;28;19976;-80
2022/09/28 05:11:53;;;;;;;;;;;10.00;99.90;;;;;;5079872;28;20442;-82
2022/09/28 05:14:20;;;;;;;;;;;10.10;99.90;;;;;;5082022;28;19932;-81
2022/09/28 05:16:47;;;;;;;;;;;10.10;99.90;;;;;;5085465;28;20403;-83
2022/09/28 05:19:13;;;;;;;;;;;10.10;99.90;;;;;;5083797;28;20665;-81
2022/09/28 05:21:42;;;;;;;;;;;10.10;99.90;;;;;;5084907;28;19932;-81
2022/09/28 05:24:11;;;;;;;;;;;10.20;99.90;;;;;;5083558;28;19932;-81
2022/09/28 05:26:38;;;;;;;;;;;10.20;99.90;;;;;;5075274;28;19935;-82
2022/09/28 05:29:04;;;;;;;;;;;10.20;99.90;;;;;;5077936;28;20285;-82
2022/09/28 05:31:31;;;;;;;;;;;10.20;99.90;;;;;;5078718;28;19932;-82
2022/09/28 05:33:57;;;;;;;;;;;10.20;99.90;;;;;;5073550;28;19932;-81
2022/09/28 05:36:25;;;;;;;;;;;10.30;99.90;;;;;;5078300;28;20490;-79
2022/09/28 05:38:52;;;;;;;;;;;10.30;99.90;;;;;;5079317;28;19951;-81
2022/09/28 05:41:20;;;;;;;;;;;10.30;99.90;;;;;;5078315;28;19955;-81
2022/09/28 05:43:46;;;;;;;;;;;10.30;99.90;;;;;;5080658;28;19959;-82
2022/09/28 05:46:13;;;;;;;;;;;10.30;99.90;;;;;;5076527;28;20498;-81
2022/09/28 05:48:39;;;;;;;;;;;10.30;99.90;;;;;;5079279;28;19975;-80
2022/09/28 05:51:06;;;;;;;;;;;10.30;99.90;;;;;;5078033;28;19947;-80
2022/09/28 05:53:32;;;;;;;;;;;10.30;99.90;;;;;;5079090;28;19928;-81
2022/09/28 05:55:59;;;;;;;;;;;10.30;99.90;;;;;;5078616;28;19938;-81
2022/09/28 05:58:27;;;;;;;;;;;10.30;99.90;;;;;;5079886;28;19932;-81
2022/09/28 06:00:54;;;;;;;;;;;10.30;99.90;;;;;;5080485;28;19935;-81
2022/09/28 06:03:21;;;;;;;;;;;10.30;99.90;;;;;;5080189;28;20363;-81
2022/09/28 06:05:48;;;;;;;;;;;10.30;99.90;;;;;;5077464;28;20374;-82
2022/09/28 06:08:14;;;;;;;;;;;10.30;99.90;;;;;;5075686;28;20114;-80
2022/09/28 06:10:41;;;;;;;;;;;10.30;99.90;;;;;;5077661;28;19928;-81
2022/09/28 06:13:09;;;;;;;;;;;10.40;99.90;;;;;;5074406;28;19932;-81
2022/09/28 06:15:37;;;;;;;;;;;10.30;99.90;;;;;;5073451;28;19954;-78
2022/09/28 06:18:05;;;;;;;;;;;10.30;99.90;;;;;;5073236;28;19955;-78
2022/09/28 06:20:33;;;;;;;;;;;10.40;99.90;;;;;;5076415;28;19927;-79
2022/09/28 06:22:59;;;;;;;;;;;10.30;99.80;;;;;;5081137;28;19928;-78
2022/09/28 06:25:26;;;;;;;;;;;10.40;99.90;;;;;;5076903;28;19935;-78
2022/09/28 06:27:53;;;;;;;;;;;10.30;99.80;;;;;;5074851;28;19955;-79
2022/09/28 06:30:20;;;;;;;;;;;10.40;99.90;;;;;;5080892;28;19935;-79
2022/09/28 06:32:48;;;;;;;;;;;10.30;99.80;;;;;;5080516;28;19935;-78
2022/09/28 06:35:15;;;;;;;;;;;10.30;99.80;;;;;;5076791;28;19985;-78
2022/09/28 06:37:44;;;;;;;;;;;10.40;99.80;;;;;;5080018;28;20369;-78
2022/09/28 06:40:10;;;;;;;;;;;10.30;99.70;;;;;;5078714;28;20031;-77
2022/09/28 06:42:37;;;;;;;;;;;10.40;99.80;;;;;;5079589;28;19928;-77
2022/09/28 06:45:04;;;;;;;;;;;10.40;99.70;;;;;;5077405;28;20034;-78
2022/09/28 06:47:34;;;;;;;;;;;10.30;99.70;;;;;;5080897;28;19928;-78
2022/09/28 06:50:02;;;;;;;;;;;10.40;99.70;;;;;;5079860;28;20455;-78
2022/09/28 06:52:28;;;;;;;;;;;10.40;99.70;;;;;;5079484;28;19936;-79
2022/09/28 06:54:55;;;;;;;;;;;10.40;99.70;;;;;;5078598;28;20011;-78
2022/09/28 06:57:21;;;;;;;;;;;10.40;99.60;;;;;;5081324;28;19936;-79
2022/09/28 06:59:48;;;;;;;;;;;10.40;99.60;;;;;;5077564;28;19928;-79
2022/09/28 07:02:14;;;;;;;;;;;10.40;99.50;;;;;;5077362;28;19936;-78
2022/09/28 07:04:41;;;;;;;;;;;10.40;99.50;;;;;;5078806;28;21207;-80
2022/09/28 07:07:09;;;;;;;;;;;10.40;99.70;;;;;;5079985;28;19988;-78
2022/09/28 07:09:36;;;;;;;;;;;10.40;99.50;;;;;;5081380;28;19934;-78
2022/09/28 07:12:04;;;;;;;;;;;10.40;99.50;;;;;;5078320;28;19960;-80
2022/09/28 07:14:30;;;;;;;;;;;10.40;99.50;;;;;;5078563;28;19935;-77
2022/09/28 07:16:57;;;;;;;;;;;10.40;99.50;;;;;;5081315;28;19932;-79
2022/09/28 07:19:23;;;;;;;;;;;10.40;99.50;;;;;;5081642;28;19932;-79
2022/09/28 07:21:51;;;;;;;;;;;10.40;99.50;;;;;;5078573;28;19940;-79
2022/09/28 07:24:19;;;;;;;;;;;10.50;99.50;;;;;;5078090;28;19928;-79
2022/09/28 07:26:45;;;;;;;;;;;10.50;99.50;;;;;;5078755;28;20384;-79
2022/09/28 07:29:12;;;;;;;;;;;10.50;99.50;;;;;;5077771;28;19935;-78
2022/09/28 07:31:38;;;;;;;;;;;10.50;99.50;;;;;;5080182;28;19932;-80
2022/09/28 07:34:05;;;;;;;;;;;10.50;99.50;;;;;;5079162;28;19928;-78
2022/09/28 07:36:33;;;;;;;;;;;10.50;99.50;;;;;;5082733;28;19953;-79
2022/09/28 07:39:00;;;;;;;;;;;10.50;99.40;;;;;;5086740;28;19932;-79
2022/09/28 07:41:31;;;;;;;;;;;10.50;99.70;;;;;;5084624;28;19997;-80
2022/09/28 07:44:02;;;;;;;;;;;10.50;99.40;;;;;;5084674;28;19928;-78
2022/09/28 07:46:29;;;;;;;;;;;10.50;99.40;;;;;;5082073;28;19935;-77
2022/09/28 07:48:57;;;;;;;;;;;10.50;99.30;;;;;;5082985;28;19935;-78
2022/09/28 07:51:23;;;;;;;;;;;10.50;99.30;;;;;;5084486;28;19928;-78
2022/09/28 07:53:52;;;;;;;;;;;10.50;99.30;;;;;;5083272;28;19932;-78
2022/09/28 07:56:19;;;;;;;;;;;10.50;99.20;;;;;;5083529;28;19939;-79
2022/09/28 07:58:48;;;;;;;;;;;10.50;99.20;;;;;;5079105;28;19934;-80
2022/09/28 08:01:15;;;;;;;;;;;10.50;99.20;;;;;;5077153;28;19929;-80
2022/09/28 08:03:44;;;;;;;;;;;10.50;99.20;;;;;;5084097;28;19981;-79
2022/09/28 08:06:11;;;;;;;;;;;10.60;99.20;;;;;;5079042;28;19928;-78
2022/09/28 08:08:43;;;;;;;;;;;10.50;99.10;;;;;;5082040;28;19935;-79
2022/09/28 08:11:10;;;;;;;;;;;10.60;99.10;;;;;;5083320;28;19935;-78
2022/09/28 08:13:37;;;;;;;;;;;10.60;99.00;;;;;;5078508;28;19928;-78
2022/09/28 08:16:07;;;;;;;;;;;10.60;99.00;;;;;;5086194;28;19928;-78
2022/09/28 08:18:34;;;;;;;;;;;10.60;99.00;;;;;;5086255;28;19935;-80
2022/09/28 08:23:44;;;;;;;;;;;10.70;98.90;;;;;;5085362;28;19932;-79
2022/09/28 08:26:11;;;;;;;;;;;10.70;98.90;;;;;;5084784;28;20514;-78
2022/09/28 08:28:38;;;;;;;;;;;10.70;98.80;;;;;;5086233;28;20189;-78
2022/09/28 08:31:06;;;;;;;;;;;10.70;98.70;;;;;;5082063;28;19928;-79
2022/09/28 08:33:33;;;;;;;;;;;10.70;98.70;;;;;;5085839;28;19932;-78
2022/09/28 08:36:00;;;;;;;;;;;10.80;98.70;;;;;;5083629;28;19935;-78
2022/09/28 08:38:28;;;;;;;;;;;10.80;98.60;;;;;;5086255;28;20771;-79
2022/09/28 08:41:02;;;;;;;;;;;10.80;98.60;;;;;;5084491;28;19928;-76
2022/09/28 08:43:41;;;;;;;;;;;10.80;98.60;;;;;;5085367;28;19942;-81
2022/09/28 08:46:09;;;;;;;;;;;10.80;98.80;;;;;;5084220;28;19954;-78
2022/09/28 08:48:43;;;;;;;;;;;10.90;98.40;;;;;;5084017;28;20002;-77
2022/09/28 08:51:13;;;;;;;;;;;10.90;98.30;;;;;;5079554;28;20711;-78
2022/09/28 08:53:42;;;;;;;;;;;10.90;98.20;;;;;;5083522;28;19939;-80
2022/09/28 08:56:11;;;;;;;;;;;11.00;98.10;;;;;;5084218;28;19928;-77
2022/09/28 08:58:41;;;;;;;;;;;11.00;98.00;;;;;;5082623;28;20270;-80
2022/09/28 09:01:12;;;;;;;;;;;11.00;97.90;;;;;;5080218;28;19935;-80
2022/09/28 09:03:40;;;;;;;;;;;11.00;97.80;;;;;;5088007;28;19998;-79
2022/09/28 09:06:14;;;;;;;;;;;11.00;97.80;;;;;;5075619;28;19955;-80
2022/09/28 09:08:47;;;;;;;;;;;11.00;97.70;;;;;;5082418;28;20297;-80
2022/09/28 09:11:19;;;;;;;;;;;11.10;97.70;;;;;;5076472;28;19928;-80
2022/09/28 09:13:55;;;;;;;;;;;11.10;97.80;;;;;;5084273;28;19924;-81
2022/09/28 09:16:32;;;;;;;;;;;11.10;97.70;;;;;;5081347;28;19929;-78
2022/09/28 09:19:04;;;;;;;;;;;11.10;97.60;;;;;;5085651;28;19932;-80
2022/09/28 09:21:39;;;;;;;;;;;11.10;97.50;;;;;;5082933;28;19928;-79
2022/09/28 09:24:14;;;;;;;;;;;11.20;97.40;;;;;;5082168;28;20019;-81
2022/09/28 09:26:41;;;;;;;;;;;11.20;97.30;;;;;;5085030;28;20674;-80
2022/09/28 09:29:26;;;;;;;;;;;11.20;97.20;;;;;;5094489;28;19931;-79
2022/09/28 09:32:05;;;;;;;;;;;11.20;97.10;;;;;;5071414;28;19927;-79
2022/09/28 09:34:43;;;;;;;;;;;11.20;97.00;;;;;;5081515;28;19932;-80
2022/09/28 09:37:18;;;;;;;;;;;11.20;97.00;;;;;;5084437;28;19928;-79
2022/09/28 09:39:54;;;;;;;;;;;11.30;97.00;;;;;;5085825;28;19928;-80
2022/09/28 09:42:28;;;;;;;;;;;11.30;97.00;;;;;;5083717;28;19935;-80
2022/09/28 09:45:13;;;;;;;;;;;11.40;97.20;;;;;;5081852;28;19928;-80
2022/09/28 09:47:43;;;;;;;;;;;11.40;96.70;;;;;;5078451;28;19928;-80
2022/09/28 09:50:13;;;;;;;;;;;11.50;96.50;;;;;;5081731;28;19990;-80
2022/09/28 09:52:45;;;;;;;;;;;11.60;96.40;;;;;;5080140;28;20035;-79
2022/09/28 09:55:14;;;;;;;;;;;11.60;96.20;;;;;;5084054;28;19940;-79
2022/09/28 09:57:44;;;;;;;;;;;11.60;96.10;;;;;;5082696;28;20532;-79
2022/09/28 10:00:11;;;;;;;;;;;11.70;96.00;;;;;;5074823;28;19932;-80
2022/09/28 10:02:39;;;;;;;;;;;11.70;95.90;;;;;;5084674;28;19942;-80
2022/09/28 10:05:14;;;;;;;;;;;11.70;95.80;;;;;;5079514;28;19932;-79
2022/09/28 10:07:44;;;;;;;;;;;11.70;95.70;;;;;;5081190;28;19932;-79
2022/09/28 10:10:12;;;;;;;;;;;11.70;95.60;;;;;;5086597;28;19932;-80
2022/09/28 10:12:39;;;;;;;;;;;11.60;95.50;;;;;;5080203;28;19928;-81
2022/09/28 10:15:07;;;;;;;;;;;11.70;95.50;;;;;;5085734;28;19934;-79
2022/09/28 10:17:35;;;;;;;;;;;11.70;95.60;;;;;;5083879;28;19953;-78
2022/09/28 10:20:01;;;;;;;;;;;11.70;95.60;;;;;;5085856;28;20359;-79
2022/09/28 10:22:31;;;;;;;;;;;11.70;95.60;;;;;;5085781;28;20456;-79
2022/09/28 10:24:59;;;;;;;;;;;11.60;95.60;;;;;;5085916;28;19932;-81
2022/09/28 10:27:27;;;;;;;;;;;11.60;95.60;;;;;;5085219;28;19935;-80
2022/09/28 10:29:55;;;;;;;;;;;11.70;95.70;;;;;;5086518;28;20541;-78
2022/09/28 10:32:23;;;;;;;;;;;11.70;95.60;;;;;;5086956;28;20001;-80
2022/09/28 10:34:50;;;;;;;;;;;11.60;95.50;;;;;;5081047;28;19968;-80
2022/09/28 10:37:20;;;;;;;;;;;11.60;95.50;;;;;;5085928;28;19928;-79
2022/09/28 10:39:50;;;;;;;;;;;11.70;95.60;;;;;;5086766;28;19967;-80
2022/09/28 10:42:18;;;;;;;;;;;11.60;95.50;;;;;;5085491;28;20293;-79
2022/09/28 10:44:49;;;;;;;;;;;11.70;95.50;;;;;;5085558;28;19932;-80
2022/09/28 10:47:18;;;;;;;;;;;11.70;95.50;;;;;;5085052;28;19928;-79
2022/09/28 10:49:47;;;;;;;;;;;11.70;95.50;;;;;;5083066;28;19967;-79
2022/09/28 10:52:32;;;;;;;;;;;11.70;95.50;;;;;;5083303;28;20311;-81
2022/09/28 10:55:00;;;;;;;;;;;11.70;95.30;;;;;;5087745;28;19928;-80
2022/09/28 10:57:33;;;;;;;;;;;11.70;95.30;;;;;;5085923;28;19935;-81
2022/09/28 11:00:00;;;;;;;;;;;11.70;95.30;;;;;;5079537;28;19935;-79
2022/09/28 11:02:29;;;;;;;;;;;11.70;95.20;;;;;;5085021;28;19928;-80
2022/09/28 11:04:57;;;;;;;;;;;11.80;95.20;;;;;;5086773;28;19958;-81
2022/09/28 11:07:25;;;;;;;;;;;11.80;95.20;;;;;;5077088;28;19935;-81
2022/09/28 11:09:55;;;;;;;;;;;11.70;95.10;;;;;;5082069;28;22269;-81
2022/09/28 11:12:25;;;;;;;;;;;11.80;95.10;;;;;;5078990;28;20060;-78
2022/09/28 11:14:56;;;;;;;;;;;11.80;95.20;;;;;;5092185;28;19931;-78
2022/09/28 11:17:27;;;;;;;;;;;11.90;95.20;;;;;;5084766;28;20267;-80
2022/09/28 11:19:54;;;;;;;;;;;11.90;95.20;;;;;;5093537;28;20395;-79
2022/09/28 11:22:21;;;;;;;;;;;11.90;95.10;;;;;;5080386;28;19983;-79
2022/09/28 11:24:48;;;;;;;;;;;11.90;95.10;;;;;;5081181;28;19939;-79
2022/09/28 11:27:22;;;;;;;;;;;11.90;95.10;;;;;;5085418;28;19928;-80
2022/09/28 11:29:56;;;;;;;;;;;11.90;95.10;;;;;;5084382;28;19943;-78
2022/09/28 11:32:23;;;;;;;;;;;11.90;95.10;;;;;;5082835;28;19932;-80
2022/09/28 11:34:51;;;;;;;;;;;12.00;95.10;;;;;;5083346;28;19940;-79
2022/09/28 11:37:27;;;;;;;;;;;12.00;95.10;;;;;;5076503;28;19928;-80
2022/09/28 11:39:58;;;;;;;;;;;12.00;95.10;;;;;;5082229;28;19989;-79
2022/09/28 11:42:34;;;;;;;;;;;12.10;95.10;;;;;;5078602;28;19928;-79
2022/09/28 11:45:17;;;;;;;;;;;12.20;95.00;;;;;;5079115;28;19932;-79
2022/09/28 11:47:49;;;;;;;;;;;12.10;94.80;;;;;;5078934;28;19928;-79
2022/09/28 11:50:26;;;;;;;;;;;12.20;94.80;;;;;;5077726;28;19982;-79
2022/09/28 11:52:57;;;;;;;;;;;12.20;94.60;;;;;;5074513;28;19932;-80
2022/09/28 11:55:26;;;;;;;;;;;12.30;94.60;;;;;;5081009;28;19924;-78
2022/09/28 11:57:56;;;;;;;;;;;12.30;94.50;;;;;;5077214;28;19928;-80
2022/09/28 12:00:24;;;;;;;;;;;12.40;94.20;;;;;;5080915;28;19932;-80
2022/09/28 12:02:52;;;;;;;;;;;12.40;94.10;;;;;;5078648;28;19928;-81
2022/09/28 12:05:22;;;;;;;;;;;12.40;94.00;;;;;;5077276;28;20462;-81
2022/09/28 12:07:51;;;;;;;;;;;12.50;93.60;;;;;;5073997;28;20356;-80
2022/09/28 12:10:20;;;;;;;;;;;12.60;93.50;;;;;;5077568;28;19928;-80
2022/09/28 12:12:48;;;;;;;;;;;12.70;93.30;;;;;;5070967;28;19929;-80
2022/09/28 12:15:16;;;;;;;;;;;12.80;93.00;;;;;;5080481;28;20018;-81
2022/09/28 12:17:46;;;;;;;;;;;12.90;92.90;;;;;;5083041;28;19928;-81
2022/09/28 12:20:18;;;;;;;;;;;12.90;92.60;;;;;;5082437;28;20172;-81
2022/09/28 12:22:48;;;;;;;;;;;13.00;92.30;;;;;;5086090;28;19934;-80
2022/09/28 12:25:16;;;;;;;;;;;13.10;92.10;;;;;;5074034;28;19935;-79
2022/09/28 12:27:47;;;;;;;;;;;13.10;92.10;;;;;;5072508;28;19928;-80
2022/09/28 12:30:15;;;;;;;;;;;13.10;92.30;;;;;;5082260;28;19932;-80
2022/09/28 12:32:43;;;;;;;;;;;13.20;92.30;;;;;;5080993;28;19929;-80
2022/09/28 12:35:15;;;;;;;;;;;13.20;91.70;;;;;;5083730;28;19959;-79
2022/09/28 12:37:50;;;;;;;;;;;13.20;91.50;;;;;;5083101;28;19935;-80
2022/09/28 12:40:35;;;;;;;;;;;13.30;91.50;;;;;;5084127;28;20014;-80
2022/09/28 12:43:18;;;;;;;;;;;13.30;91.70;;;;;;5083415;28;19935;-79
2022/09/28 12:45:53;;;;;;;;;;;13.30;91.00;;;;;;5080779;28;20039;-80
2022/09/28 12:48:41;;;;;;;;;;;13.30;91.30;;;;;;5082710;28;19932;-78
2022/09/28 12:51:13;;;;;;;;;;;13.40;91.00;;;;;;5079047;28;20678;-80
2022/09/28 12:53:51;;;;;;;;;;;13.40;91.20;;;;;;5085111;28;19932;-79
2022/09/28 12:56:21;;;;;;;;;;;13.40;91.20;;;;;;5085983;28;19978;-80
2022/09/28 12:58:58;;;;;;;;;;;13.60;90.30;;;;;;5080209;28;20578;-79
2022/09/28 13:01:38;;;;;;;;;;;13.60;90.20;;;;;;5085042;28;20598;-80
2022/09/28 13:04:26;;;;;;;;;;;13.70;90.50;;;;;;5083773;28;19928;-79
2022/09/28 13:06:59;;;;;;;;;;;13.80;90.20;;;;;;5054741;28;20679;-79
2022/09/28 13:09:26;;;;;;;;;;;13.90;89.90;;;;;;5080246;28;19928;-79
2022/09/28 13:12:13;;;;;;;;;;;13.90;90.00;;;;;;5074285;28;19937;-78
2022/09/28 13:14:52;;;;;;;;;;;13.90;89.70;;;;;;5078197;28;19936;-78
2022/09/28 13:17:24;;;;;;;;;;;13.90;90.20;;;;;;5082688;28;20522;-80
2022/09/28 13:19:54;;;;;;;;;;;14.00;90.20;;;;;;5083850;28;19935;-79
2022/09/28 13:22:27;;;;;;;;;;;13.90;90.20;;;;;;5080718;28;19928;-79
2022/09/28 13:24:55;;;;;;;;;;;13.90;90.20;;;;;;5083523;28;19935;-78
2022/09/28 13:27:25;;;;;;;;;;;13.90;90.20;;;;;;5078314;28;20307;-78
2022/09/28 13:29:52;;;;;;;;;;;13.90;90.20;;;;;;5076064;28;20467;-79
2022/09/28 13:32:19;;;;;;;;;;;13.90;89.80;;;;;;5084941;28;20714;-80
2022/09/28 13:34:48;;;;;;;;;;;13.90;89.10;;;;;;5084072;28;20005;-79
2022/09/28 13:37:20;;;;;;;;;;;13.90;88.80;;;;;;5079700;28;19931;-78
2022/09/28 13:39:51;;;;;;;;;;;13.90;89.80;;;;;;5084868;28;19928;-80
2022/09/28 13:42:22;;;;;;;;;;;14.00;89.30;;;;;;5079009;28;19945;-80
2022/09/28 13:45:00;;;;;;;;;;;13.90;89.50;;;;;;5082835;28;19994;-78
2022/09/28 13:47:36;;;;;;;;;;;14.00;90.10;;;;;;5078975;28;19931;-78
2022/09/28 13:50:14;;;;;;;;;;;14.00;90.20;;;;;;5076431;28;19932;-79
2022/09/28 13:52:44;;;;;;;;;;;14.00;90.00;;;;;;5080997;28;19932;-78
2022/09/28 13:55:22;;;;;;;;;;;13.90;90.10;;;;;;5085045;28;19928;-79
2022/09/28 13:57:51;;;;;;;;;;;13.90;90.30;;;;;;5080328;28;20516;-79
2022/09/28 14:00:21;;;;;;;;;;;13.90;90.40;;;;;;5078065;28;20376;-80
2022/09/28 14:02:51;;;;;;;;;;;13.90;90.40;;;;;;5082469;28;19963;-80
2022/09/28 14:05:40;;;;;;;;;;;13.90;90.90;;;;;;5083680;28;20341;-80
2022/09/28 14:08:19;;;;;;;;;;;13.80;90.90;;;;;;5079513;28;19935;-81
2022/09/28 14:10:50;;;;;;;;;;;13.90;90.70;;;;;;5079758;28;20019;-81
2022/09/28 14:13:35;;;;;;;;;;;13.90;90.60;;;;;;5080359;28;20361;-80
2022/09/28 14:16:17;;;;;;;;;;;13.90;90.60;;;;;;5074817;28;19936;-81
2022/09/28 14:18:44;;;;;;;;;;;13.90;90.60;;;;;;5079370;28;20420;-80
2022/09/28 14:21:25;;;;;;;;;;;13.90;90.50;;;;;;5076066;28;19928;-80
2022/09/28 14:23:59;;;;;;;;;;;14.00;90.20;;;;;;5072465;28;19935;-80
2022/09/28 14:26:47;;;;;;;;;;;14.10;90.30;;;;;;5076216;28;19936;-81
2022/09/28 14:29:21;;;;;;;;;;;14.10;90.30;;;;;;5068070;28;19932;-80
2022/09/28 14:31:47;;;;;;;;;;;14.20;90.30;;;;;;5080653;28;19952;-80
2022/09/28 14:34:24;;;;;;;;;;;14.30;90.20;;;;;;5084008;28;20713;-80
2022/09/28 14:42:22;;;;;;;;;;;14.60;90.50;;;;;;5082867;28;19970;-80
2022/09/28 14:45:07;;;;;;;;;;;14.60;90.50;;;;;;5082469;28;20460;-80